createdAt,value
2023-06-04T10:43:42.450Z,100804.54
2023-06-04T10:48:08.764Z,100803.41
2023-06-04T10:50:53.463Z,100807.54
2023-06-04T10:53:24.522Z,100804.10
2023-06-04T10:55:52.794Z,100797.67
2023-06-04T10:58:21.700Z,100796.38
2023-06-04T11:00:51.197Z,100793.05
2023-06-04T11:03:21.130Z,100789.98
2023-06-04T11:05:49.574Z,100794.14
2023-06-04T11:08:29.634Z,100793.25
2023-06-04T11:10:58.437Z,100794.60
2023-06-04T11:13:27.204Z,100795.18
2023-06-04T11:15:56.982Z,100794.40
2023-06-04T11:18:29.510Z,100793.94
2023-06-04T11:21:05.128Z,100797.24
2023-06-04T11:23:34.835Z,100802.13
2023-06-04T11:26:05.542Z,100797.69
2023-06-04T11:28:35.576Z,100801.42
2023-06-04T11:31:04.910Z,100795.52
2023-06-04T11:33:46.388Z,100800.50
2023-06-04T11:36:31.803Z,100802.54
2023-06-04T11:39:02.744Z,100794.91
2023-06-04T11:41:32.704Z,100792.69
2023-06-04T11:44:07.020Z,100790.60
2023-06-04T11:46:37.187Z,100795.31
2023-06-04T11:49:05.702Z,100795.55
2023-06-04T11:51:46.070Z,100791.79
2023-06-04T11:54:16.694Z,100797.00
2023-06-04T11:56:45.807Z,100796.39
2023-06-04T11:59:15.657Z,100797.61
2023-06-04T12:01:45.138Z,100795.48
2023-06-04T18:09:14.079Z,100730.80
2023-06-04T18:11:49.018Z,100728.27
2023-06-04T18:14:17.583Z,100729.80
2023-06-04T18:16:45.970Z,100727.48
2023-06-04T18:19:14.313Z,100723.39
2023-06-04T18:21:46.148Z,100725.25
2023-06-04T18:24:15.525Z,100726.84
2023-06-04T18:26:44.434Z,100725.52
2023-06-04T18:29:12.731Z,100728.95
2023-06-04T18:31:42.957Z,100728.69
2023-06-04T18:34:21.338Z,100729.81
2023-06-04T18:36:57.387Z,100732.83
2023-06-04T18:39:27.498Z,100732.10
2023-06-04T18:41:57.852Z,100729.86
2023-06-04T18:44:27.102Z,100732.20
2023-06-04T18:46:56.800Z,100732.94
2023-06-04T18:49:25.768Z,100737.04
2023-06-04T18:51:55.145Z,100738.02
2023-06-04T18:54:23.304Z,100738.86
2023-06-04T18:56:52.916Z,100739.27
2023-06-04T18:59:23.062Z,100744.28
2023-06-04T19:01:52.177Z,100744.91
2023-06-04T19:04:20.241Z,100744.13
2023-06-04T19:06:48.262Z,100749.35
2023-06-04T19:09:17.962Z,100748.73
2023-06-04T19:11:47.421Z,100746.90
2023-06-04T19:14:18.502Z,100745.13
2023-06-04T19:16:55.469Z,100746.47
2023-06-04T19:19:24.393Z,100750.70
2023-06-04T19:21:53.671Z,100753.25
2023-06-04T19:24:26.811Z,100749.66
2023-06-04T19:27:09.622Z,100754.28
2023-06-04T19:29:43.573Z,100754.39
2023-06-04T19:32:12.952Z,100754.11
2023-06-04T19:34:43.956Z,100758.41
2023-06-04T19:37:17.041Z,100758.44
2023-06-04T19:39:45.285Z,100762.92
2023-06-04T19:42:15.972Z,100769.31
2023-06-04T19:44:48.564Z,100766.06
2023-06-04T19:47:19.458Z,100768.50
2023-06-04T19:49:48.174Z,100769.15
2023-06-04T19:52:19.873Z,100772.41
2023-06-04T19:54:49.444Z,100775.52
2023-06-04T19:57:21.021Z,100776.34
2023-06-04T19:59:51.788Z,100773.75
2023-06-04T20:02:29.062Z,100772.23
2023-06-04T20:05:00.264Z,100771.87
2023-06-04T20:07:29.792Z,100769.51
2023-06-04T20:09:58.155Z,100773.49
2023-06-04T20:12:27.523Z,100777.42
2023-06-04T20:14:58.395Z,100782.39
2023-06-04T20:17:26.686Z,100788.25
2023-06-04T20:20:16.530Z,100787.30
2023-06-04T20:22:44.867Z,100788.09
2023-06-04T20:25:13.355Z,100787.33
2023-06-04T20:27:47.885Z,100787.20
2023-06-04T20:30:15.949Z,100785.71
2023-06-04T20:32:44.036Z,100787.21
2023-06-04T20:35:12.282Z,100790.55
2023-06-04T20:37:43.127Z,100789.27
2023-06-04T20:40:14.441Z,100792.53
2023-06-04T20:42:43.441Z,100797.50
2023-06-04T20:45:18.154Z,100799.31
2023-06-04T20:47:47.609Z,100797.94
2023-06-04T20:50:15.926Z,100797.95
2023-06-04T20:52:45.953Z,100794.13
2023-06-04T20:55:14.990Z,100791.27
2023-06-04T20:57:43.804Z,100792.84
2023-06-04T21:00:13.060Z,100791.13
2023-06-04T21:02:41.612Z,100794.91
2023-06-04T21:05:10.098Z,100795.23
2023-06-04T21:07:38.007Z,100795.44
2023-06-04T21:10:06.226Z,100795.25
2023-06-04T21:12:34.375Z,100792.89
2023-06-04T21:15:02.544Z,100793.69
2023-06-04T21:17:32.549Z,100795.80
2023-06-04T21:20:00.803Z,100797.98
2023-06-04T21:22:28.934Z,100798.41
2023-06-04T21:24:59.913Z,100800.87
2023-06-04T21:27:34.634Z,100798.81
2023-06-04T21:30:02.973Z,100803.92
2023-06-04T21:32:44.118Z,100801.22
2023-06-04T21:35:22.448Z,100802.58
2023-06-04T21:37:53.067Z,100805.44
2023-06-04T21:40:21.140Z,100809.13
2023-06-04T21:42:49.136Z,100807.52
2023-06-04T21:45:18.081Z,100807.77
2023-06-04T21:47:46.706Z,100809.81
2023-06-04T21:50:15.310Z,100811.73
2023-06-04T21:52:44.385Z,100809.54
2023-06-04T21:55:12.376Z,100812.31
2023-06-04T21:57:40.533Z,100812.73
2023-06-04T22:00:09.823Z,100814.58
2023-06-04T22:02:43.720Z,100816.74
2023-06-04T22:05:11.836Z,100817.70
2023-06-04T22:07:40.505Z,100817.05
2023-06-04T22:10:09.088Z,100814.45
2023-06-04T22:12:41.024Z,100818.98
2023-06-04T22:15:09.349Z,100819.62
2023-06-04T22:17:37.411Z,100818.65
2023-06-04T22:20:06.536Z,100827.18
2023-06-04T22:22:34.320Z,100826.17
2023-06-04T22:25:02.368Z,100829.73
2023-06-04T22:27:36.771Z,100828.56
2023-06-04T22:30:05.405Z,100834.34
2023-06-04T22:32:33.294Z,100830.65
2023-06-04T22:35:01.382Z,100832.97
2023-06-04T22:37:32.051Z,100833.94
2023-06-04T22:40:01.843Z,100834.50
2023-06-04T22:42:31.369Z,100833.06
2023-06-04T22:44:59.556Z,100832.82
2023-06-04T22:47:27.457Z,100832.84
2023-06-04T22:49:55.424Z,100833.30
2023-06-04T22:52:28.413Z,100834.66
2023-06-04T22:54:57.212Z,100836.23
2023-06-04T22:57:25.663Z,100832.58
2023-06-04T22:59:54.037Z,100835.55
2023-06-04T23:02:22.207Z,100833.64
2023-06-04T23:04:50.241Z,100834.74
2023-06-04T23:07:18.560Z,100835.34
2023-06-04T23:09:47.849Z,100838.03
2023-06-04T23:12:15.849Z,100836.15
2023-06-04T23:14:43.864Z,100838.02
2023-06-04T23:17:11.735Z,100837.62
2023-06-04T23:19:39.639Z,100838.70
2023-06-04T23:22:07.574Z,100841.72
2023-06-04T23:24:42.710Z,100833.45
2023-06-04T23:27:10.607Z,100841.48
2023-06-04T23:29:38.562Z,100841.59
2023-06-04T23:32:06.831Z,100843.85
2023-06-04T23:34:34.752Z,100844.27
2023-06-04T23:37:03.084Z,100848.02
2023-06-04T23:39:31.157Z,100849.15
2023-06-04T23:41:59.034Z,100852.77
2023-06-04T23:44:26.926Z,100856.96
2023-06-04T23:46:54.857Z,100859.42
2023-06-04T23:49:22.717Z,100857.21
2023-06-04T23:51:50.666Z,100856.27
2023-06-04T23:54:18.884Z,100860.57
2023-06-04T23:56:46.987Z,100858.05
2023-06-04T23:59:14.814Z,100858.97
